Flight Track Log - Related Links

Times and Time Zones

All times are in EDT time to prevent confusion due to time zone crossing. See the SWA789 flight status page for this flight to view local times or setup timezone preferences in your user account.

Time Position Orientation Groundspeed Altitude Reporting Facility
EDT Latitude Longitude Course Direction KTS MPH feet Rate Location/Type
Sat 12:09:53 PM 28.0500 -82.5333 North 216 249 2,800  Level Tampa TRACON
Sat 12:10:53 PM 28.1167 -82.5333 360° North 255 293 5,200 2,804 Climbing Tampa TRACON
Sat 12:12:57 PM 28.2767 -82.5672 349° North 294 338 11,400 2,967 Climbing Jacksonville Center
Sat 12:13:57 PM 28.3750 -82.5811 353° North 320 368 14,300 2,850 Climbing Jacksonville Center
Sat 12:14:57 PM 28.4792 -82.5833 359° North 351 404 17,100 2,550 Climbing Jacksonville Center
Sat 12:15:00 PM 28.6310 -82.5833 North  Level FlightAware Approximate
Sat 12:15:57 PM 28.5878 -82.5875 358° North 367 422 19,400  Level Jacksonville Center
Sat 12:16:57 PM 28.6881 -82.5919 358° North 394 453 21,600 2,350 Climbing Jacksonville Center
Sat 12:17:57 PM 28.8028 -82.6083 353° North 407 468 24,100 2,200 Climbing Jacksonville Center
Sat 12:18:57 PM 28.9197 -82.6222 354° North 412 474 26,000 1,850 Climbing Jacksonville Center
Sat 12:19:57 PM 29.0386 -82.6408 352° North 417 480 27,800 1,600 Climbing Jacksonville Center
Sat 12:20:57 PM 29.1578 -82.6572 353° North 422 486 29,200 1,600 Climbing Jacksonville Center
Sat 12:21:57 PM 29.2789 -82.6736 353° North 428 493 31,000 1,850 Climbing Jacksonville Center
Sat 12:22:57 PM 29.3978 -82.6900 353° North 428 493 32,900 2,000 Climbing Jacksonville Center
Sat 12:23:57 PM 29.5314 -82.6969 357° North 428 493 35,000 1,050 Climbing Jacksonville Center
Sat 12:24:57 PM 29.6483 -82.6919 North 421 484 35,000 150 Level Jacksonville Center
Sat 12:25:57 PM 29.7675 -82.6939 359° North 421 484 35,300 950 Climbing Jacksonville Center
Sat 12:26:57 PM 29.8864 -82.6939 360° North 421 484 36,900 850 Climbing Jacksonville Center
Sat 12:27:57 PM 30.0011 -82.6911 North 421 484 37,000 50 Climbing Jacksonville Center
Sat 12:28:57 PM 30.1203 -82.6883 North 421 484 37,000  Level Jacksonville Center
Sat 12:29:58 PM 30.2350 -82.6881 360° North 421 484 37,000  Level Jacksonville Center
Sat 12:30:57 PM 30.3500 -82.6856 North 421 484 37,000  Level Jacksonville Center
Sat 12:31:57 PM 30.4647 -82.6853 360° North 421 484 37,000  Level Jacksonville Center
Sat 12:32:57 PM 30.5669 -82.6633 10° North 416 479 37,000  Level Jacksonville Center
Sat 12:33:57 PM 30.6797 -82.6075 23° Northeast 421 484 37,000  Level Jacksonville Center
Sat 12:34:57 PM 30.7900 -82.5517 24° Northeast 427 491 37,000  Level Jacksonville Center
Sat 12:35:57 PM 30.9006 -82.4956 24° Northeast 427 491 37,000  Level Jacksonville Center
Sat 12:36:57 PM 31.0153 -82.4392 23° Northeast 433 498 37,000  Level Jacksonville Center
Sat 12:37:57 PM 31.1236 -82.3878 22° Northeast 433 498 37,000  Level Jacksonville Center
Sat 12:38:57 PM 31.2383 -82.3336 22° Northeast 433 498 37,000  Level Jacksonville Center
Sat 12:39:57 PM 31.3467 -82.2794 23° Northeast 433 498 37,000  Level Jacksonville Center
Sat 12:40:57 PM 31.4569 -82.2278 22° Northeast 428 493 37,000 750 Level Jacksonville Center
Sat 12:41:57 PM 31.5675 -82.1758 22° Northeast 428 493 38,500 1,000 Climbing Jacksonville Center
Sat 12:42:57 PM 31.6819 -82.1114 26° Northeast 416 479 39,000 250 Climbing Jacksonville Center
Sat 12:43:57 PM 31.7858 -82.0617 22° Northeast 411 473 39,000  Level Jacksonville Center
Sat 12:44:57 PM 31.8836 -82.0117 23° Northeast 417 480 39,000  Level Jacksonville Center
Sat 12:45:57 PM 32.0022 -81.9567 21° North 412 474 39,000  Level Jacksonville Center
Sat 12:46:57 PM 32.0958 -81.9142 21° North 412 474 39,000  Level Jacksonville Center
Sat 12:47:57 PM 32.2144 -81.8564 22° Northeast 412 474 39,000  Level Jacksonville Center
Sat 12:48:57 PM 32.3183 -81.8061 22° Northeast 406 467 39,000  Level Jacksonville Center
Sat 12:49:57 PM 32.4119 -81.7606 22° Northeast 404 465 39,000  Level Jacksonville Center
Sat 12:50:58 PM 32.5283 -81.7075 21° North 404 465 39,000  Level Jacksonville Center
Sat 12:51:57 PM 32.6344 -81.6567 22° Northeast 405 466 39,000  Level Jacksonville Center
Sat 12:52:57 PM 32.7425 -81.6033 23° Northeast 410 472 39,000  Level Jacksonville Center
Sat 12:53:57 PM 32.8483 -81.5500 23° Northeast 410 472 39,000  Level Jacksonville Center
Sat 12:54:57 PM 32.9542 -81.4989 22° Northeast 410 472 39,000  Level Jacksonville Center
Sat 12:55:58 PM 33.0642 -81.4475 21° North 410 472 39,000  Level Jacksonville Center
Sat 12:56:57 PM 33.1700 -81.3961 22° Northeast 410 472 39,000  Level Jacksonville Center
Sat 12:57:57 PM 33.2739 -81.3422 23° Northeast 410 472 39,000  Level Jacksonville Center
Sat 12:58:57 PM 33.3817 -81.2931 21° North 410 472 39,000  Level Jacksonville Center
Sat 12:59:57 PM 33.4897 -81.2389 23° Northeast 410 472 39,000  Level Jacksonville Center
Sat 01:00:57 PM 33.5953 -81.1869 22° Northeast 410 472 39,000  Level Jacksonville Center
Sat 01:01:57 PM 33.7031 -81.1350 22° Northeast 410 472 39,000  Level Jacksonville Center
Sat 01:02:57 PM 33.8089 -81.0778 24° Northeast 410 472 39,000  Level Jacksonville Center
Sat 01:03:57 PM 33.9058 -81.0058 32° Northeast 410 472 39,000  Level Jacksonville Center
Sat 01:04:57 PM 33.9939 -80.9089 42° Northeast 417 480 39,000  Level Jacksonville Center
Sat 01:05:57 PM 34.0842 -80.8114 42° Northeast 423 487 39,000  Level Jacksonville Center
Sat 01:06:57 PM 34.1539 -80.7319 43° Northeast 423 487 39,000  Level Jacksonville Center
Sat 01:07:57 PM 34.2481 -80.6292 42° Northeast 423 487 39,000  Level Jacksonville Center
Sat 01:08:57 PM 34.3381 -80.5314 42° Northeast 423 487 39,000  Level Jacksonville Center
Sat 01:09:57 PM 34.4258 -80.4358 42° Northeast 423 487 39,000  Level Jacksonville Center
Sat 01:10:57 PM 34.5136 -80.3375 43° Northeast 423 487 39,000  Level Jacksonville Center
Sat 01:12:31 PM 34.6469 -80.1842 43° Northeast 384 442 39,000  Level Washington Center
Sat 01:13:32 PM 34.7319 -80.0853 44° Northeast 402 463 39,000  Level Washington Center
Sat 01:14:32 PM 34.8147 -79.9961 41° Northeast 402 463 39,000  Level Washington Center
Sat 01:15:33 PM 34.8953 -79.9044 43° Northeast 397 457 39,000  Level Washington Center
Sat 01:16:31 PM 34.9756 -79.8175 42° Northeast 392 451 39,000  Level Washington Center
Sat 01:17:32 PM 35.0539 -79.7250 44° Northeast 387 445 39,000  Level Washington Center
Sat 01:18:33 PM 35.1342 -79.6353 42° Northeast 382 440 39,000  Level Washington Center
Sat 01:19:31 PM 35.2144 -79.5453 42° Northeast 382 440 39,000  Level Washington Center
Sat 01:20:31 PM 35.2925 -79.4550 43° Northeast 382 440 39,000  Level Washington Center
Sat 01:21:32 PM 35.3681 -79.3719 42° Northeast 389 448 39,000  Level Washington Center
Sat 01:22:32 PM 35.4547 -79.2714 43° Northeast 389 448 39,000  Level Washington Center
Sat 01:23:33 PM 35.5325 -79.1806 44° Northeast 382 440 39,000  Level Washington Center
Sat 01:24:33 PM 35.6125 -79.0897 43° Northeast 382 440 39,000  Level Washington Center
Sat 01:25:31 PM 35.6944 -78.9961 43° Northeast 382 440 39,000  Level Washington Center
Sat 01:26:32 PM 35.7764 -78.8997 44° Northeast 387 445 39,000  Level Washington Center
Sat 01:27:32 PM 35.8606 -78.8033 43° Northeast 392 451 39,000  Level Washington Center
Sat 01:28:32 PM 35.9525 -78.7172 37° Northeast 402 463 39,000 -793 Level Washington Center
Sat 01:29:33 PM 36.0422 -78.6386 35° Northeast 402 463 37,400 -1,613 Descending Washington Center
Sat 01:30:31 PM 36.1339 -78.5597 35° Northeast 396 456 35,800 -1,627 Descending Washington Center
Sat 01:31:31 PM 36.2042 -78.4981 35° Northeast 390 449 34,200 -1,388 Descending Washington Center
Sat 01:32:32 PM 36.3194 -78.3942 36° Northeast 406 467 33,000 -595 Descending Washington Center
Sat 01:33:32 PM 36.4172 -78.3100 35° Northeast 413 475 33,000  Level Washington Center
Sat 01:34:33 PM 36.5131 -78.2228 36° Northeast 418 481 33,000  Level Washington Center
Sat 01:35:31 PM 36.6047 -78.1353 37° Northeast 418 481 33,000  Level Washington Center
Sat 01:36:32 PM 36.7006 -78.0503 35° Northeast 418 481 33,000  Level Washington Center
Sat 01:37:32 PM 36.7981 -77.9628 36° Northeast 418 481 33,000  Level Washington Center
Sat 01:38:31 PM 36.8917 -77.8772 36° Northeast 418 481 33,000  Level Washington Center
Sat 01:39:31 PM 36.9850 -77.7942 35° Northeast 418 481 33,000  Level Washington Center
Sat 01:40:32 PM 37.0803 -77.7083 36° Northeast 418 481 33,000  Level Washington Center
Sat 01:41:30 PM 37.1736 -77.6225 36° Northeast 418 481 33,000  Level Washington Center
Sat 01:42:31 PM 37.2689 -77.5361 36° Northeast 418 481 33,000  Level Washington Center
Sat 01:43:33 PM 37.3622 -77.4497 36° Northeast 418 481 33,000  Level Washington Center
Sat 01:44:33 PM 37.4572 -77.3656 35° Northeast 418 481 33,000  Level Washington Center
Sat 01:45:32 PM 37.5483 -77.2786 37° Northeast 418 481 33,000  Level Washington Center
Sat 01:46:32 PM 37.6372 -77.1836 40° Northeast 418 481 33,000  Level Washington Center
Sat 01:47:32 PM 37.7281 -77.0936 38° Northeast 418 481 33,000  Level Washington Center
Sat 01:48:33 PM 37.8189 -77.0008 39° Northeast 413 475 33,000 -50 Level Washington Center
Sat 01:49:31 PM 37.9075 -76.9078 40° Northeast 413 475 32,900 -610 Descending Washington Center
Sat 01:50:31 PM 37.9961 -76.8092 41° Northeast 413 475 31,800 -942 Descending Washington Center
Sat 01:51:32 PM 38.0786 -76.6944 48° Northeast 413 475 31,000 -397 Descending Washington Center
Sat 01:52:32 PM 38.1608 -76.5767 48° Northeast 434 499 31,000  Level Washington Center
Sat 01:53:33 PM 38.2450 -76.4589 48° Northeast 439 505 31,000  Level Washington Center
Sat 01:54:33 PM 38.3228 -76.3672 43° Northeast 433 498 31,000  Level Washington Center
Sat 01:55:31 PM 38.4172 -76.2806 36° Northeast 418 481 31,000  Level Washington Center
Sat 01:56:32 PM 38.5136 -76.1914 36° Northeast 418 481 31,000  Level Washington Center
Sat 01:57:32 PM 38.6119 -76.0992 36° Northeast 432 497 31,000  Level Washington Center
Sat 01:58:33 PM 38.7083 -76.0094 36° Northeast 432 497 31,000  Level Washington Center
Sat 01:59:31 PM 38.8067 -75.9192 36° Northeast 426 490 31,000  Level Washington Center
Sat 02:00:32 PM 38.9047 -75.8292 36° Northeast 432 497 31,000  Level Washington Center
Sat 02:01:32 PM 38.9986 -75.7358 38° Northeast 432 497 31,000  Level Washington Center
Sat 02:02:32 PM 39.0967 -75.6478 35° Northeast 432 497 31,000  Level Washington Center
Sat 02:03:31 PM 39.1925 -75.5542 37° Northeast 432 497 31,000  Level Washington Center
Sat 02:05:55 PM 39.4264 -75.3453 35° Northeast 441 507 31,000  Level New York Center
Sat 02:06:55 PM 39.5258 -75.2522 36° Northeast 441 507 31,000  Level New York Center
Sat 02:07:54 PM 39.6275 -75.1617 34° Northeast 441 507 31,000  Level New York Center
Sat 02:08:54 PM 39.7375 -75.0606 35° Northeast 441 507 31,000  Level New York Center
Sat 02:09:54 PM 39.8386 -74.9722 34° Northeast 440 506 31,000  Level New York Center
Sat 02:10:55 PM 39.9381 -74.8753 37° Northeast 440 506 31,000  Level New York Center
Sat 02:11:55 PM 40.0375 -74.7672 40° Northeast 446 513 31,000  Level New York Center
Sat 02:12:53 PM 40.1308 -74.6558 42° Northeast 451 519 31,000 -508 Level New York Center
Sat 02:13:53 PM 40.2200 -74.5467 43° Northeast 451 519 30,000 -984 Descending New York Center
Sat 02:14:55 PM 40.3153 -74.4319 43° Northeast 445 512 29,000 -500 Descending New York Center
Sat 02:15:53 PM 40.4061 -74.3250 42° Northeast 445 512 29,000  Level New York Center
Sat 02:16:54 PM 40.4947 -74.2153 43° Northeast 439 505 29,000  Level New York Center
Sat 02:17:54 PM 40.5875 -74.1078 41° Northeast 434 499 29,000 -1,473 Level New York Center
Sat 02:19:41 PM 40.7486 -73.9167 42° Northeast 446 513 24,900 -1,796 Descending Boston Center
Sat 02:20:41 PM 40.8311 -73.8169 42° Northeast 424 488 24,000 -500 Descending Boston Center
Sat 02:21:41 PM 40.9136 -73.7172 42° Northeast 404 465 23,900 -500 Descending Boston Center
Sat 02:22:41 PM 40.9897 -73.6169 45° Northeast 393 452 23,000 -450 Descending Boston Center
Sat 02:23:41 PM 41.0739 -73.5194 41° Northeast 393 452 23,000 -50 Level Boston Center
Sat 02:24:41 PM 41.1622 -73.4436 33° Northeast 393 452 22,900 -1,050 Descending Boston Center
Sat 02:25:41 PM 41.2664 -73.4508 357° North 360 414 20,900 -1,900 Descending Boston Center
Sat 02:26:41 PM 41.3497 -73.4550 358° North 360 414 19,100 -950 Descending Boston Center
Sat 02:27:41 PM 41.4683 -73.4678 355° North 360 414 19,000 -500 Descending Boston Center
Sat 02:28:41 PM 41.5492 -73.5219 333° Northwest 360 414 18,100 -1,900 Descending Boston Center
Sat 02:29:41 PM 41.6378 -73.6011 326° Northwest 354 407 15,200 -2,300 Descending Boston Center
Sat 02:30:41 PM 41.7278 -73.5861 North 336 387 13,500 -1,400 Descending Boston Center
Sat 02:31:41 PM 41.8278 -73.5711 North 326 375 12,400 -1,029 Descending Boston Center
Sat 02:32:26 PM 41.8925 -73.5611 North 324 373 11,700 -900 Descending Boston Center
Sat 02:32:41 PM 41.9092 -73.5586 North 332 382 11,500 -689 Descending Boston Center
Sat 02:33:27 PM 41.9844 -73.5461 North 326 375 11,000 -283 Descending Boston Center
Sat 02:34:27 PM 42.0722 -73.5336 North 320 368 11,000  Level Boston Center
Sat 02:35:28 PM 42.1636 -73.5633 346° North 321 369 11,000 -149 Level Boston Center
Sat 02:36:28 PM 42.2403 -73.6067 337° Northwest 306 352 10,700 -744 Descending Boston Center
Sat 02:37:29 PM 42.3106 -73.6531 334° Northwest 265 305 9,500 -1,279 Descending Boston Center
Sat 02:38:30 PM 42.3747 -73.6878 338° Northwest 252 290 8,100 -1,587 Descending Boston Center
Sat 02:39:30 PM 42.4347 -73.7256 335° Northwest 229 264 6,300 -1,636 Descending Boston Center
Sat 02:40:31 PM 42.4886 -73.7606 334° Northwest 224 258 4,800 -1,279 Descending Boston Center
Sat 02:41:32 PM 42.5467 -73.7956 336° Northwest 222 255 3,700 -893 Descending Boston Center
Sat 02:42:32 PM 42.6006 -73.8025 355° North 192 221 3,000 -793 Descending Boston Center
Sat 02:43:33 PM 42.6486 -73.8006 North 141 162 2,100 -787 Descending Boston Center
Sat 02:44:34 PM 42.6797 -73.8042 355° North 111 128 1,400 -645 Descending Boston Center
Sat 02:45:34 PM 42.7131 -73.8078 355° North 119 137 800 -600 Descending Boston Center

Login

Don't have an account? Register now (free) for customized features, flight alerts, and more!